Time;durP1;ratioP1;P1;durP2;ratioP2;P2;SDS_P1;SDS_P2;PMS_P1;PMS_P2;Temp;Humidity;BMP_temperature;BMP_pressure;BME280_temperature;BME280_humidity;BME280_pressure;Samples;Min_cycle;Max_cycle;Signal;HPM_P1;HPM_P2
2023/08/01 05:55:19;;;;;;;;;;;;;;;26.17;66.48;99853.63;6299957;22;19915;-87
2023/08/01 05:58:14;;;;;;;;;;;;;;;26.20;66.15;99860.34;6321731;22;20329;-87
2023/08/01 06:01:06;;;;;;;;;;;;;;;26.22;66.09;99847.53;6319536;22;19906;-88
2023/08/01 06:03:58;;;;;;;;;;;;;;;26.23;66.10;99849.13;6317846;22;19911;-86
2023/08/01 06:06:50;;;;;;;;;;;;;;;26.25;66.20;99854.25;6317860;22;19907;-86
2023/08/01 06:09:37;;;;;;;;;;;;;;;26.26;66.37;99853.03;6309507;22;19915;-85
2023/08/01 06:12:26;;;;;;;;;;;;;;;26.25;66.43;99855.03;6320626;22;19910;-83
2023/08/01 06:15:18;;;;;;;;;;;;;;;26.27;66.68;99849.00;6319509;22;19911;-83
2023/08/01 06:18:10;;;;;;;;;;;;;;;26.28;66.37;99848.56;6317964;22;19906;-83
2023/08/01 06:21:02;;;;;;;;;;;;;;;26.29;66.37;99830.63;6286890;22;19911;-85
2023/08/01 06:23:54;;;;;;;;;;;;;;;26.31;66.67;99833.72;6291489;22;19911;-84
2023/08/01 06:26:46;;;;;;;;;;;;;;;26.34;66.46;99832.06;6291825;22;19907;-84
2023/08/01 06:29:38;;;;;;;;;;;;;;;26.36;66.43;99835.22;6292799;22;19911;-84
2023/08/01 06:32:30;;;;;;;;;;;;;;;26.37;66.54;99831.19;6291864;22;19907;-84
2023/08/01 06:35:21;;;;;;;;;;;;;;;26.38;66.54;99822.38;6292222;22;20329;-84
2023/08/01 06:38:10;;;;;;;;;;;;;;;26.40;66.45;99830.31;6292509;22;20250;-84
2023/08/01 06:41:01;;;;;;;;;;;;;;;26.43;66.16;99834.19;6290997;22;19907;-84
2023/08/01 06:43:53;;;;;;;;;;;;;;;26.44;66.01;99835.75;6291076;22;19911;-83
2023/08/01 06:46:43;;;;;;;;;;;;;;;26.46;66.00;99834.09;6293607;22;20238;-84
2023/08/01 06:49:27;;;;;;;;;;;;;;;26.48;66.13;99826.06;6292715;22;19907;-86
2023/08/01 06:52:19;;;;;;;;;;;;;;;26.51;65.72;99818.81;6293285;22;19907;-86
2023/08/01 06:55:11;;;;;;;;;;;;;;;26.53;65.59;99831.09;6293072;22;19907;-85
2023/08/01 06:58:03;;;;;;;;;;;;;;;26.55;65.78;99830.66;6293478;22;19907;-86
2023/08/01 07:00:55;;;;;;;;;;;;;;;26.56;65.83;99833.00;6293517;22;19907;-86
2023/08/01 07:03:45;;;;;;;;;;;;;;;26.58;65.81;99827.75;6293609;22;19911;-87
2023/08/01 07:06:32;;;;;;;;;;;;;;;26.60;65.34;99833.66;6292223;22;19911;-87
2023/08/01 07:09:23;;;;;;;;;;;;;;;26.62;65.31;99836.78;6293364;22;19907;-86
2023/08/01 07:12:15;;;;;;;;;;;;;;;26.63;65.39;99843.91;6293060;22;19907;-87
2023/08/01 07:15:07;;;;;;;;;;;;;;;26.64;64.87;99844.69;6291742;22;19907;-87
2023/08/01 07:17:57;;;;;;;;;;;;;;;26.66;64.47;99839.47;6292636;22;19911;-87
2023/08/01 07:20:48;;;;;;;;;;;;;;;26.67;63.71;99830.63;6292477;22;20297;-87
2023/08/01 07:23:36;;;;;;;;;;;;;;;26.70;63.88;99832.56;6292463;22;20322;-87
2023/08/01 07:26:29;;;;;;;;;;;;;;;26.69;63.73;99830.19;6282730;22;19919;-87
2023/08/01 07:29:16;;;;;;;;;;;;;;;26.82;60.93;99820.59;6292413;22;20318;-88
2023/08/01 07:32:10;;;;;;;;;;;;;;;26.90;59.71;99817.63;6293319;22;19907;-86
2023/08/01 07:35:02;;;;;;;;;;;;;;;26.91;58.45;99808.81;6293675;22;19907;-85
2023/08/01 07:37:56;;;;;;;;;;;;;;;26.96;58.59;99794.28;6291051;22;19907;-85
2023/08/01 07:40:46;;;;;;;;;;;;;;;26.95;59.34;99792.72;6292486;22;19910;-84
2023/08/01 07:43:35;;;;;;;;;;;;;;;27.02;59.33;99800.84;6292239;22;19911;-85
2023/08/01 07:46:24;;;;;;;;;;;;;;;27.11;58.26;99798.16;6292928;22;19907;-84
2023/08/01 07:49:16;;;;;;;;;;;;;;;27.18;58.56;99791.53;6294336;22;19906;-85
2023/08/01 07:52:06;;;;;;;;;;;;;;;27.14;58.80;99786.09;6294433;22;19911;-86
2023/08/01 07:54:58;;;;;;;;;;;;;;;27.14;59.38;99788.88;6292684;22;19911;-86
2023/08/01 07:57:50;;;;;;;;;;;;;;;27.11;58.66;99784.19;6293058;22;19907;-86
2023/08/01 08:00:39;;;;;;;;;;;;;;;27.35;56.32;99781.00;6293394;22;19907;-87
2023/08/01 08:03:31;;;;;;;;;;;;;;;27.31;56.35;99775.53;6293011;22;19911;-86
2023/08/01 08:06:23;;;;;;;;;;;;;;;27.32;57.12;99777.09;6292062;22;20322;-87
2023/08/01 08:09:15;;;;;;;;;;;;;;;27.31;56.63;99777.56;6292906;22;19907;-87
2023/08/01 08:12:05;;;;;;;;;;;;;;;27.27;56.64;99780.47;6293116;22;19907;-86
2023/08/01 08:14:57;;;;;;;;;;;;;;;27.43;57.21;99785.88;6292468;22;19907;-87
2023/08/01 08:17:46;;;;;;;;;;;;;;;27.37;57.26;99784.13;6293003;22;19911;-87
2023/08/01 08:20:42;;;;;;;;;;;;;;;27.45;56.48;99771.47;6291882;22;19907;-86
2023/08/01 08:23:31;;;;;;;;;;;;;;;27.46;56.65;99770.22;6292142;22;19911;-87
2023/08/01 08:26:23;;;;;;;;;;;;;;;27.46;58.29;99773.03;6291613;22;19907;-86
2023/08/01 08:29:16;;;;;;;;;;;;;;;27.44;58.60;99767.88;6290896;22;19908;-86
2023/08/01 08:32:08;;;;;;;;;;;;;;;27.54;56.13;99763.16;6290628;22;19906;-87
2023/08/01 08:35:00;;;;;;;;;;;;;;;27.58;56.78;99763.84;6290087;22;19907;-87
2023/08/01 08:37:52;;;;;;;;;;;;;;;27.60;57.66;99759.34;6291314;22;20237;-87
2023/08/01 08:40:45;;;;;;;;;;;;;;;27.57;58.71;99765.06;6291592;22;19911;-87
2023/08/01 08:43:37;;;;;;;;;;;;;;;27.62;58.77;99764.50;6290497;22;19911;-86
2023/08/01 08:46:34;;;;;;;;;;;;;;;27.59;59.01;99762.59;6291178;22;20273;-86
2023/08/01 08:49:26;;;;;;;;;;;;;;;27.80;56.74;99749.84;6291564;22;20330;-87
2023/08/01 08:52:18;;;;;;;;;;;;;;;27.91;57.94;99753.03;6291269;22;19907;-84
2023/08/01 08:55:11;;;;;;;;;;;;;;;27.85;58.32;99758.44;6290352;22;19908;-85
2023/08/01 08:58:01;;;;;;;;;;;;;;;27.91;57.51;99756.59;6291275;22;19907;-85
2023/08/01 09:00:52;;;;;;;;;;;;;;;27.90;58.63;99749.47;6290756;22;19907;-85
2023/08/01 09:03:44;;;;;;;;;;;;;;;28.23;57.12;99751.84;6291270;22;19915;-85
2023/08/01 09:06:36;;;;;;;;;;;;;;;28.16;57.89;99741.72;6291674;22;20318;-85
2023/08/01 09:09:31;;;;;;;;;;;;;;;28.30;56.55;99740.38;6290684;22;19907;-85
2023/08/01 09:12:21;;;;;;;;;;;;;;;28.30;56.31;99743.94;6291207;22;19907;-85
2023/08/01 09:15:14;;;;;;;;;;;;;;;28.26;57.18;99742.53;6290894;22;20326;-85
2023/08/01 09:18:08;;;;;;;;;;;;;;;28.39;54.69;99737.63;6291520;22;19907;-85
2023/08/01 09:21:02;;;;;;;;;;;;;;;28.38;55.46;99725.66;6290816;22;19911;-84
2023/08/01 09:23:51;;;;;;;;;;;;;;;28.30;56.49;99732.75;6289632;22;19911;-84
2023/08/01 09:26:43;;;;;;;;;;;;;;;28.34;57.06;99729.84;6287979;22;19907;-85
2023/08/01 09:29:32;;;;;;;;;;;;;;;28.54;56.39;99735.81;6288616;22;19907;-85
2023/08/01 09:32:24;;;;;;;;;;;;;;;28.44;56.34;99723.78;6289932;22;19910;-83
2023/08/01 09:35:16;;;;;;;;;;;;;;;28.57;56.25;99722.91;6290152;22;20330;-83
2023/08/01 09:38:08;;;;;;;;;;;;;;;28.73;55.33;99725.47;6289904;22;19907;-84
2023/08/01 09:41:00;;;;;;;;;;;;;;;28.74;55.06;99716.63;6289440;22;19907;-85
2023/08/01 09:43:52;;;;;;;;;;;;;;;28.83;56.05;99721.44;6289236;22;20341;-84
2023/08/01 09:46:44;;;;;;;;;;;;;;;28.77;55.40;99720.50;6289524;22;19907;-86
2023/08/01 09:49:36;;;;;;;;;;;;;;;28.63;56.21;99709.88;6288757;22;19907;-87
2023/08/01 09:52:31;;;;;;;;;;;;;;;28.69;56.83;99703.19;6291398;22;19907;-87
2023/08/01 09:55:34;;;;;;;;;;;;;;;28.81;56.11;99709.91;6289467;22;19907;-86
2023/08/01 09:58:27;;;;;;;;;;;;;;;28.74;56.02;99699.81;6290463;22;19907;-87
2023/08/01 10:01:16;;;;;;;;;;;;;;;28.83;56.15;99710.25;6290066;22;19903;-87
2023/08/01 10:04:09;;;;;;;;;;;;;;;28.88;55.80;99704.03;6290400;22;19915;-88
2023/08/01 10:07:08;;;;;;;;;;;;;;;28.72;56.28;99707.91;6291078;22;20246;-88
2023/08/01 10:09:59;;;;;;;;;;;;;;;28.73;56.13;99700.28;6289813;22;19907;-88
2023/08/01 10:12:51;;;;;;;;;;;;;;;28.70;55.48;99699.13;6291547;22;19907;-84
2023/08/01 10:15:43;;;;;;;;;;;;;;;28.84;56.17;99681.81;6290913;22;20325;-84
2023/08/01 10:18:34;;;;;;;;;;;;;;;28.77;55.79;99675.72;6290380;22;19907;-85
2023/08/01 10:21:26;;;;;;;;;;;;;;;28.87;55.61;99674.47;6290772;22;19903;-85
2023/08/01 10:24:18;;;;;;;;;;;;;;;28.95;54.73;99680.56;6289113;22;19911;-86
2023/08/01 10:27:15;;;;;;;;;;;;;;;29.03;55.46;99687.41;6288480;22;19907;-86
2023/08/01 10:30:07;;;;;;;;;;;;;;;28.94;55.20;99679.00;6290197;22;19907;-86
2023/08/01 10:32:57;;;;;;;;;;;;;;;28.85;55.39;99686.13;6290744;22;20597;-84
2023/08/01 10:35:47;;;;;;;;;;;;;;;28.73;55.83;99678.66;6290426;22;19911;-84
2023/08/01 10:38:46;;;;;;;;;;;;;;;28.59;56.48;99676.44;6289572;22;19907;-85
2023/08/01 10:41:38;;;;;;;;;;;;;;;28.55;56.32;99658.25;6289436;22;19911;-86
2023/08/01 10:44:30;;;;;;;;;;;;;;;28.50;56.55;99657.59;6291043;22;19911;-85
2023/08/01 10:47:31;;;;;;;;;;;;;;;28.61;54.73;99651.56;6291235;22;19907;-85
2023/08/01 10:50:18;;;;;;;;;;;;;;;28.46;56.86;99659.00;6290732;22;19907;-87
2023/08/01 10:53:11;;;;;;;;;;;;;;;28.41;57.17;99654.00;6290505;22;20245;-87
2023/08/01 10:55:58;;;;;;;;;;;;;;;28.52;54.15;99648.75;6290869;22;19907;-87
2023/08/01 10:58:50;;;;;;;;;;;;;;;28.58;55.85;99646.13;6290617;22;19907;-86
2023/08/01 11:01:48;;;;;;;;;;;;;;;28.50;56.28;99635.22;6291963;22;19907;-86
2023/08/01 11:04:38;;;;;;;;;;;;;;;28.46;56.91;99623.41;6291799;22;19911;-86
2023/08/01 11:07:31;;;;;;;;;;;;;;;28.46;56.82;99622.63;6291436;22;19911;-87
2023/08/01 11:10:18;;;;;;;;;;;;;;;28.51;56.68;99613.63;6290460;22;20265;-87
2023/08/01 11:13:13;;;;;;;;;;;;;;;28.44;56.83;99619.53;6290555;22;19911;-86
2023/08/01 11:16:06;;;;;;;;;;;;;;;28.39;57.48;99623.69;6290079;22;19907;-86
2023/08/01 11:18:53;;;;;;;;;;;;;;;28.38;57.22;99616.56;6290349;22;19907;-86
2023/08/01 11:21:42;;;;;;;;;;;;;;;28.40;57.54;99607.69;6289734;22;19907;-86
2023/08/01 11:24:32;;;;;;;;;;;;;;;28.48;56.77;99606.19;6291206;22;19911;-84
2023/08/01 11:27:21;;;;;;;;;;;;;;;28.28;57.49;99612.19;6291361;22;19911;-85
2023/08/01 11:30:14;;;;;;;;;;;;;;;28.34;56.97;99610.31;6291194;22;19907;-84
2023/08/01 11:33:12;;;;;;;;;;;;;;;28.42;56.84;99605.22;6293167;22;19907;-84
2023/08/01 11:36:05;;;;;;;;;;;;;;;28.50;55.22;99609.28;6291477;22;19907;-84
2023/08/01 11:38:57;;;;;;;;;;;;;;;28.55;55.97;99597.47;6292887;22;19907;-89
2023/08/01 11:41:47;;;;;;;;;;;;;;;28.62;55.50;99602.75;6292978;22;19907;-84
2023/08/01 11:44:39;;;;;;;;;;;;;;;28.74;54.65;99599.06;6292804;22;19919;-85
2023/08/01 11:47:31;;;;;;;;;;;;;;;28.86;53.44;99600.91;6291456;22;19911;-84
2023/08/01 11:50:27;;;;;;;;;;;;;;;28.90;53.58;99592.38;6291362;22;20585;-86
2023/08/01 11:53:20;;;;;;;;;;;;;;;28.98;53.24;99582.41;6292745;22;19907;-85
2023/08/01 11:56:19;;;;;;;;;;;;;;;28.99;53.85;99586.00;6293909;22;19911;-85
2023/08/01 11:59:14;;;;;;;;;;;;;;;28.72;55.51;99581.97;6293131;22;19907;-85
2023/08/01 12:02:06;;;;;;;;;;;;;;;28.56;55.89;99575.84;6293224;22;19907;-84
2023/08/01 12:04:58;;;;;;;;;;;;;;;28.45;55.76;99579.13;6293387;22;19911;-87
2023/08/01 12:07:47;;;;;;;;;;;;;;;28.26;56.74;99574.75;6294847;22;19911;-86
2023/08/01 12:10:48;;;;;;;;;;;;;;;28.09;56.96;99566.59;6293197;22;20509;-84
2023/08/01 12:13:37;;;;;;;;;;;;;;;28.35;54.28;99550.34;6304442;22;20265;-83
2023/08/01 12:16:27;;;;;;;;;;;;;;;28.32;55.79;99556.91;6316336;22;19915;-81
2023/08/01 12:19:22;;;;;;;;;;;;;;;28.19;55.90;99555.50;6317660;22;19911;-83
2023/08/01 12:22:14;;;;;;;;;;;;;;;28.26;55.60;99552.38;6317465;22;20261;-83
2023/08/01 12:25:06;;;;;;;;;;;;;;;28.47;51.64;99540.28;6318581;22;19911;-80
2023/08/01 12:27:56;;;;;;;;;;;;;;;28.52;54.27;99530.47;6318870;22;19906;-83
2023/08/01 12:30:42;;;;;;;;;;;;;;;28.44;54.98;99533.59;6319695;22;19910;-84
2023/08/01 12:33:34;;;;;;;;;;;;;;;28.63;54.10;99559.56;6318208;22;19907;-81
2023/08/01 12:36:27;;;;;;;;;;;;;;;28.79;53.78;99524.91;6319044;22;19907;-83
2023/08/01 12:39:16;;;;;;;;;;;;;;;28.72;52.96;99494.44;6318809;22;19907;-81
2023/08/01 12:42:08;;;;;;;;;;;;;;;28.68;50.79;99513.38;6318651;22;19907;-82
2023/08/01 12:45:00;;;;;;;;;;;;;;;28.44;53.88;99518.84;6317664;22;20249;-83
2023/08/01 12:47:45;;;;;;;;;;;;;;;28.42;52.86;99515.72;6318274;22;19910;-81
2023/08/01 12:50:38;;;;;;;;;;;;;;;29.46;48.40;99518.97;6318232;22;20330;-83
2023/08/01 12:53:30;;;;;;;;;;;;;;;31.12;42.61;99515.34;6318381;22;20284;-82
2023/08/01 12:56:20;;;;;;;;;;;;;;;30.80;41.73;99510.63;6308319;22;20092;-84
2023/08/01 12:59:13;;;;;;;;;;;;;;;31.43;41.72;99512.00;6325004;22;19906;-86
2023/08/01 13:02:08;;;;;;;;;;;;;;;33.44;39.24;99518.78;6341683;22;19915;-80
2023/08/01 13:04:57;;;;;;;;;;;;;;;34.06;36.65;99513.53;6326064;22;19914;-89
2023/08/01 13:07:49;;;;;;;;;;;;;;;34.75;36.78;99512.03;6329344;22;19906;-87
2023/08/01 13:10:37;;;;;;;;;;;;;;;35.20;34.04;99507.25;6334576;22;19907;-84
2023/08/01 13:13:26;;;;;;;;;;;;;;;38.04;29.28;99512.13;6340747;22;19915;-86
2023/08/01 13:16:16;;;;;;;;;;;;;;;38.57;30.07;99518.19;6337851;22;19906;-88
2023/08/01 13:19:05;;;;;;;;;;;;;;;37.79;31.37;99527.63;6331612;22;19907;-88
2023/08/01 13:21:57;;;;;;;;;;;;;;;38.56;28.93;99516.63;6337442;22;19906;-88
2023/08/01 13:24:49;;;;;;;;;;;;;;;40.26;28.34;99517.66;6328254;22;19910;-86
2023/08/01 13:27:40;;;;;;;;;;;;;;;38.30;29.98;99507.94;6338035;22;19907;-88
2023/08/01 13:30:27;;;;;;;;;;;;;;;37.07;31.61;99494.19;6337539;22;19907;-89
2023/08/01 13:33:12;;;;;;;;;;;;;;;36.08;31.47;99482.88;6331796;22;19907;-83
2023/08/01 13:36:05;;;;;;;;;;;;;;;37.43;30.78;99486.44;6328207;22;19915;-82
2023/08/01 13:38:56;;;;;;;;;;;;;;;37.87;31.80;99490.88;6316883;22;19907;-85
2023/08/01 13:41:48;;;;;;;;;;;;;;;37.42;31.61;99504.75;6319283;22;19906;-80
2023/08/01 13:44:42;;;;;;;;;;;;;;;37.32;31.67;99497.88;6327901;22;19914;-86
2023/08/01 13:47:32;;;;;;;;;;;;;;;37.67;31.44;99504.25;6320470;22;19907;-84
2023/08/01 13:50:19;;;;;;;;;;;;;;;37.79;30.05;99493.56;6319670;22;19907;-81
2023/08/01 13:53:10;;;;;;;;;;;;;;;37.73;29.85;99478.66;6319166;22;19907;-86
2023/08/01 13:56:02;;;;;;;;;;;;;;;36.36;33.02;99475.06;6320043;22;19907;-86
2023/08/01 13:58:51;;;;;;;;;;;;;;;35.86;34.03;99471.66;6334828;22;19915;-87
2023/08/01 14:01:43;;;;;;;;;;;;;;;35.00;34.80;99482.75;6329667;22;19914;-82
2023/08/01 14:04:35;;;;;;;;;;;;;;;33.76;36.76;99474.41;6316076;22;19911;-81
2023/08/01 14:07:26;;;;;;;;;;;;;;;32.06;40.63;99470.22;6317077;22;19914;-82
2023/08/01 14:10:15;;;;;;;;;;;;;;;31.84;40.98;99474.31;6316924;22;20269;-82
2023/08/01 14:13:07;;;;;;;;;;;;;;;32.00;40.82;99458.13;6315985;22;19907;-82
2023/08/01 14:15:57;;;;;;;;;;;;;;;31.76;40.89;99455.50;6317087;22;19907;-82
2023/08/01 14:18:50;;;;;;;;;;;;;;;31.43;41.76;99448.16;6320191;22;19906;-82
2023/08/01 14:21:42;;;;;;;;;;;;;;;31.30;43.22;99444.88;6317404;22;20322;-82
2023/08/01 14:24:34;;;;;;;;;;;;;;;31.44;42.05;99448.91;6317737;22;20249;-82
2023/08/01 14:27:26;;;;;;;;;;;;;;;31.21;43.49;99459.03;6324017;22;19906;-84
2023/08/01 14:30:18;;;;;;;;;;;;;;;30.82;44.08;99461.19;6322606;22;20329;-82
2023/08/01 14:33:08;;;;;;;;;;;;;;;30.99;43.68;99453.03;6316902;22;19910;-82
2023/08/01 14:35:58;;;;;;;;;;;;;;;31.00;42.10;99448.97;6317578;22;19907;-83
2023/08/01 14:38:47;;;;;;;;;;;;;;;31.06;43.85;99444.25;6317329;22;19907;-82
2023/08/01 14:41:37;;;;;;;;;;;;;;;30.93;44.02;99449.38;6315602;22;20253;-82
2023/08/01 14:44:29;;;;;;;;;;;;;;;31.31;43.74;99435.19;6316362;22;19911;-81
2023/08/01 14:47:21;;;;;;;;;;;;;;;31.37;43.12;99438.84;6317227;22;19907;-81
2023/08/01 14:50:14;;;;;;;;;;;;;;;31.59;42.79;99440.47;6294667;22;19907;-82
2023/08/01 14:53:06;;;;;;;;;;;;;;;31.37;43.46;99438.06;6315373;22;19907;-83
2023/08/01 14:56:05;;;;;;;;;;;;;;;31.65;42.52;99433.63;6316896;22;20245;-80
2023/08/01 14:58:56;;;;;;;;;;;;;;;30.97;44.71;99428.25;6316443;22;19906;-81
2023/08/01 15:01:48;;;;;;;;;;;;;;;30.94;44.67;99423.59;6316531;22;20342;-81
2023/08/01 15:04:38;;;;;;;;;;;;;;;30.54;44.25;99415.78;6316480;22;19911;-81
2023/08/01 15:07:29;;;;;;;;;;;;;;;30.79;45.13;99408.78;6318146;22;19907;-81
2023/08/01 15:10:21;;;;;;;;;;;;;;;30.89;44.56;99415.06;6319029;22;20310;-82
2023/08/01 15:13:13;;;;;;;;;;;;;;;30.47;44.95;99421.78;6318860;22;20248;-81
2023/08/01 15:16:05;;;;;;;;;;;;;;;30.82;44.58;99418.28;6319181;22;19907;-81
2023/08/01 15:18:52;;;;;;;;;;;;;;;31.19;43.37;99418.66;6318757;22;19907;-82
2023/08/01 15:21:44;;;;;;;;;;;;;;;31.33;43.46;99421.44;6318688;22;19907;-80
2023/08/01 15:24:38;;;;;;;;;;;;;;;31.18;43.68;99409.47;6317779;22;19910;-85
2023/08/01 15:27:28;;;;;;;;;;;;;;;30.67;44.43;99403.50;6319401;22;19910;-84
2023/08/01 15:30:20;;;;;;;;;;;;;;;30.74;45.14;99414.31;6319765;22;19906;-82
2023/08/01 15:33:12;;;;;;;;;;;;;;;30.47;46.20;99416.16;6319615;22;20241;-82
2023/08/01 15:36:02;;;;;;;;;;;;;;;30.25;46.44;99412.91;6321667;22;19906;-82
2023/08/01 15:38:49;;;;;;;;;;;;;;;30.38;45.98;99412.63;6318889;22;19907;-82
2023/08/01 15:41:41;;;;;;;;;;;;;;;30.45;45.91;99410.22;6318811;22;19907;-80
2023/08/01 15:44:33;;;;;;;;;;;;;;;30.52;45.25;99412.69;6321841;22;20333;-83
2023/08/01 15:47:25;;;;;;;;;;;;;;;30.46;45.75;99414.63;6332583;22;19914;-87
2023/08/01 15:50:15;;;;;;;;;;;;;;;30.33;46.63;99405.66;6319876;22;19907;-83
2023/08/01 15:53:07;;;;;;;;;;;;;;;30.35;46.22;99408.75;6320713;22;20333;-83
2023/08/01 15:56:10;;;;;;;;;;;;;;;30.49;45.29;99410.06;6318828;22;19911;-82
2023/08/01 15:59:02;;;;;;;;;;;;;;;30.70;44.61;99403.28;6319171;22;19907;-83
2023/08/01 16:01:54;;;;;;;;;;;;;;;30.74;45.46;99395.44;6322363;22;19910;-82
2023/08/01 16:04:46;;;;;;;;;;;;;;;30.98;44.71;99404.50;6320477;22;19911;-82
2023/08/01 16:07:38;;;;;;;;;;;;;;;30.97;44.92;99407.81;6320386;22;19907;-82
2023/08/01 16:10:30;;;;;;;;;;;;;;;31.00;44.91;99407.59;6321843;22;19910;-82
2023/08/01 16:13:22;;;;;;;;;;;;;;;30.80;45.46;99409.56;6320661;22;20322;-82
2023/08/01 16:16:14;;;;;;;;;;;;;;;30.13;47.50;99405.53;6320280;22;19906;-78
2023/08/01 16:19:06;;;;;;;;;;;;;;;30.17;46.08;99403.34;6318197;22;19907;-79
2023/08/01 16:21:58;;;;;;;;;;;;;;;30.11;46.55;99394.03;6317533;22;19906;-80
2023/08/01 16:24:45;;;;;;;;;;;;;;;29.97;47.41;99394.78;6317730;22;19911;-79
2023/08/01 16:27:37;;;;;;;;;;;;;;;29.72;48.55;99398.81;6317602;22;19911;-79
2023/08/01 16:30:29;;;;;;;;;;;;;;;29.71;49.03;99397.28;6318057;22;19906;-78
2023/08/01 16:33:21;;;;;;;;;;;;;;;29.84;48.72;99399.81;6317673;22;19906;-80
2023/08/01 16:36:13;;;;;;;;;;;;;;;29.92;49.56;99404.59;6317847;22;20329;-78
2023/08/01 16:39:05;;;;;;;;;;;;;;;29.89;48.27;99401.97;6317892;22;20325;-80
2023/08/01 16:41:57;;;;;;;;;;;;;;;29.86;48.32;99400.13;6317972;22;20326;-78
2023/08/01 16:44:49;;;;;;;;;;;;;;;29.86;48.11;99402.94;6318171;22;19911;-82
2023/08/01 16:47:42;;;;;;;;;;;;;;;29.71;47.76;99403.63;6317967;22;20226;-79
2023/08/01 16:50:34;;;;;;;;;;;;;;;29.54;48.93;99408.13;6317974;22;20229;-80
2023/08/01 16:53:26;;;;;;;;;;;;;;;29.92;48.60;99406.66;6317762;22;19907;-80
2023/08/01 16:56:18;;;;;;;;;;;;;;;29.85;49.01;99399.34;6317783;22;19906;-81
2023/08/01 16:59:10;;;;;;;;;;;;;;;29.98;49.63;99401.91;6317969;22;19907;-79
2023/08/01 17:02:02;;;;;;;;;;;;;;;29.89;49.74;99402.78;6318069;22;19907;-82
2023/08/01 17:04:54;;;;;;;;;;;;;;;29.97;49.23;99397.59;6317773;22;20236;-80
2023/08/01 17:07:43;;;;;;;;;;;;;;;29.82;49.66;99402.34;6319082;22;19907;-81
2023/08/01 17:10:35;;;;;;;;;;;;;;;29.73;50.48;99389.94;6319330;22;19906;-80
2023/08/01 17:13:27;;;;;;;;;;;;;;;29.92;50.52;99392.66;6319115;22;19907;-80
2023/08/01 17:16:20;;;;;;;;;;;;;;;30.01;49.99;99389.75;6318725;22;19907;-81
2023/08/01 17:19:09;;;;;;;;;;;;;;;29.68;50.50;99392.63;6317918;22;19954;-82
2023/08/01 17:21:59;;;;;;;;;;;;;;;29.35;50.95;99389.88;6317750;22;20337;-79
2023/08/01 17:24:51;;;;;;;;;;;;;;;29.37;50.37;99383.78;6317326;22;20257;-80
2023/08/01 17:27:43;;;;;;;;;;;;;;;29.34;50.63;99399.53;6317070;22;19907;-80
2023/08/01 17:30:35;;;;;;;;;;;;;;;29.17;51.18;99393.50;6317496;22;19907;-79
2023/08/01 17:33:24;;;;;;;;;;;;;;;28.97;51.69;99396.09;6317584;22;19907;-79
2023/08/01 17:36:16;;;;;;;;;;;;;;;28.86;51.07;99401.41;6317540;22;19907;-79
2023/08/01 17:39:08;;;;;;;;;;;;;;;28.98;51.58;99400.44;6317612;22;19907;-79
2023/08/01 17:42:00;;;;;;;;;;;;;;;29.06;51.02;99404.44;6317595;22;19907;-80
2023/08/01 17:44:49;;;;;;;;;;;;;;;29.08;51.27;99395.59;6318615;22;19907;-81
2023/08/01 17:47:42;;;;;;;;;;;;;;;28.90;51.41;99397.19;6317660;22;19906;-80
2023/08/01 17:50:34;;;;;;;;;;;;;;;28.88;51.72;99405.31;6317737;22;19907;-80
2023/08/01 17:53:26;;;;;;;;;;;;;;;28.84;52.16;99404.72;6317246;22;19907;-80
2023/08/01 17:56:18;;;;;;;;;;;;;;;28.82;51.80;99398.81;6317579;22;19906;-81
2023/08/01 17:59:10;;;;;;;;;;;;;;;28.75;52.61;99399.13;6317736;22;19907;-81
2023/08/01 18:02:02;;;;;;;;;;;;;;;28.65;53.59;99403.16;6316963;22;19907;-80
2023/08/01 18:04:54;;;;;;;;;;;;;;;28.56;53.26;99405.22;6316484;22;19907;-80
2023/08/01 18:07:46;;;;;;;;;;;;;;;28.47;53.82;99400.41;6303661;22;19906;-83
2023/08/01 18:10:41;;;;;;;;;;;;;;;28.26;53.94;99401.38;6318459;22;20318;-82
2023/08/01 18:13:30;;;;;;;;;;;;;;;28.13;54.26;99409.16;6317644;22;19911;-81
2023/08/01 18:16:26;;;;;;;;;;;;;;;27.98;54.85;99406.97;6311963;22;19915;-84
2023/08/01 18:19:15;;;;;;;;;;;;;;;27.91;54.65;99412.84;6316758;22;20325;-86
2023/08/01 18:22:07;;;;;;;;;;;;;;;27.82;55.55;99424.03;6320020;22;19907;-87
2023/08/01 18:24:59;;;;;;;;;;;;;;;27.65;55.74;99417.16;6325932;22;19907;-84
2023/08/01 18:27:51;;;;;;;;;;;;;;;27.49;56.22;99417.41;6328313;22;19911;-84
2023/08/01 18:30:44;;;;;;;;;;;;;;;27.36;57.00;99420.34;6325956;22;19906;-84
2023/08/01 18:33:36;;;;;;;;;;;;;;;27.24;57.73;99424.78;6324737;22;20326;-84
2023/08/01 18:36:28;;;;;;;;;;;;;;;27.10;58.16;99433.72;6325500;22;19907;-86
2023/08/01 18:39:17;;;;;;;;;;;;;;;27.00;58.63;99436.94;6325914;22;19907;-86
2023/08/01 18:42:10;;;;;;;;;;;;;;;26.88;59.34;99440.59;6326732;22;19906;-86
2023/08/01 18:45:03;;;;;;;;;;;;;;;26.69;60.33;99432.09;6325956;22;19911;-86
2023/08/01 18:47:55;;;;;;;;;;;;;;;26.57;60.95;99432.16;6325264;22;19906;-85
2023/08/01 18:50:47;;;;;;;;;;;;;;;26.50;61.63;99424.84;6325280;22;20318;-86
2023/08/01 18:53:39;;;;;;;;;;;;;;;26.39;61.81;99438.41;6324794;22;19907;-86
2023/08/01 18:56:31;;;;;;;;;;;;;;;26.31;62.60;99435.09;6324575;22;19906;-86
2023/08/01 18:59:23;;;;;;;;;;;;;;;26.24;62.83;99442.94;6322545;22;19906;-87
2023/08/01 19:02:15;;;;;;;;;;;;;;;26.23;62.93;99464.44;6322233;22;19910;-86
2023/08/01 19:05:11;;;;;;;;;;;;;;;26.35;64.04;99460.84;6321630;22;20244;-83
2023/08/01 19:08:03;;;;;;;;;;;;;;;26.88;61.47;99458.09;6317795;22;20321;-83
2023/08/01 19:10:55;;;;;;;;;;;;;;;27.12;61.47;99475.91;6316245;22;20685;-84
2023/08/01 19:13:47;;;;;;;;;;;;;;;27.22;61.61;99477.53;6317434;22;19910;-83
2023/08/01 19:16:37;;;;;;;;;;;;;;;27.27;61.72;99481.72;6315478;22;19911;-79
2023/08/01 19:19:29;;;;;;;;;;;;;;;27.32;61.30;99483.16;6319533;22;19906;-84
2023/08/01 19:22:21;;;;;;;;;;;;;;;27.32;61.39;99485.94;6320071;22;19907;-84
2023/08/01 19:25:13;;;;;;;;;;;;;;;27.36;61.62;99483.78;6319522;22;19910;-84
2023/08/01 19:28:05;;;;;;;;;;;;;;;27.39;61.55;99491.22;6320243;22;19910;-83
2023/08/01 19:30:55;;;;;;;;;;;;;;;27.40;61.88;99499.16;6318670;22;19907;-83
2023/08/01 19:33:48;;;;;;;;;;;;;;;27.40;61.41;99498.38;6319227;22;19916;-84
2023/08/01 19:36:39;;;;;;;;;;;;;;;27.42;61.74;99510.66;6320267;22;20322;-83
2023/08/01 19:39:30;;;;;;;;;;;;;;;27.43;62.11;99506.59;6319950;22;19906;-83
2023/08/01 19:42:17;;;;;;;;;;;;;;;27.48;61.86;99513.63;6318663;22;19906;-85
2023/08/01 19:45:08;;;;;;;;;;;;;;;27.49;61.92;99512.38;6318594;22;19906;-84
2023/08/01 19:47:58;;;;;;;;;;;;;;;27.48;62.05;99506.00;6318207;22;19907;-84
2023/08/01 19:50:53;;;;;;;;;;;;;;;27.54;61.60;99517.38;6319563;22;19907;-84
2023/08/01 19:53:47;;;;;;;;;;;;;;;27.60;61.43;99519.13;6317618;22;19907;-84
2023/08/01 19:56:36;;;;;;;;;;;;;;;27.61;60.81;99523.47;6319159;22;19911;-82
2023/08/01 19:59:28;;;;;;;;;;;;;;;27.58;61.40;99526.41;6319729;22;19907;-82
2023/08/01 20:02:18;;;;;;;;;;;;;;;27.53;61.35;99521.44;6319348;22;19907;-82
2023/08/01 20:05:11;;;;;;;;;;;;;;;27.47;61.67;99532.38;6319016;22;19907;-84
2023/08/01 20:08:03;;;;;;;;;;;;;;;27.46;61.67;99521.66;6319559;22;19906;-84
2023/08/01 20:11:01;;;;;;;;;;;;;;;27.46;61.77;99530.03;6319531;22;20257;-83
2023/08/01 20:13:51;;;;;;;;;;;;;;;27.43;61.95;99531.72;6319609;22;19906;-82
2023/08/01 20:16:40;;;;;;;;;;;;;;;27.40;62.23;99543.03;6319236;22;19907;-83
2023/08/01 20:19:32;;;;;;;;;;;;;;;27.37;62.13;99533.59;6320019;22;19907;-83
2023/08/01 20:22:21;;;;;;;;;;;;;;;27.36;61.96;99537.63;6319312;22;20326;-83
2023/08/01 20:25:13;;;;;;;;;;;;;;;27.31;62.57;99540.22;6318703;22;19907;-83
2023/08/01 20:28:00;;;;;;;;;;;;;;;27.28;62.12;99543.94;6319206;22;20318;-84
2023/08/01 20:30:52;;;;;;;;;;;;;;;27.24;62.05;99547.63;6319015;22;19907;-83
2023/08/01 20:33:42;;;;;;;;;;;;;;;27.21;62.09;99550.56;6318768;22;20329;-84
2023/08/01 20:36:31;;;;;;;;;;;;;;;27.20;62.43;99547.00;6318626;22;19906;-85
2023/08/01 20:39:23;;;;;;;;;;;;;;;27.18;62.09;99546.66;6319200;22;20318;-82
2023/08/01 20:42:15;;;;;;;;;;;;;;;27.18;62.17;99557.03;6323464;22;19911;-85
2023/08/01 20:45:07;;;;;;;;;;;;;;;27.17;62.39;99570.22;6323387;22;19907;-85
2023/08/01 20:47:59;;;;;;;;;;;;;;;27.18;62.45;99571.78;6320547;22;19907;-85